Time;durP1;ratioP1;P1;durP2;ratioP2;P2;SDS_P1;SDS_P2;PMS_P1;PMS_P2;Temp;Humidity;BMP_temperature;BMP_pressure;BME280_temperature;BME280_humidity;BME280_pressure;Samples;Min_cycle;Max_cycle;Signal;HPM_P1;HPM_P2
2023/12/07 00:00:58;;;;;;;77.20;36.10;;;;;;;-0.06;83.07;100449.48;131094;1254;249406;-81
2023/12/07 00:04:10;;;;;;;76.60;33.70;;;;;;;0.02;83.08;100451.31;131248;1251;107604;-80
2023/12/07 00:07:16;;;;;;;72.50;32.70;;;;;;;0.09;83.21;100451.30;131342;1254;106450;-81
2023/12/07 00:10:21;;;;;;;79.50;37.80;;;;;;;0.11;83.03;100452.09;131330;1255;107754;-81
2023/12/07 00:13:27;;;;;;;74.40;34.20;;;;;;;0.12;83.10;100453.77;131535;1251;107787;-80
2023/12/07 00:16:33;;;;;;;61.80;28.30;;;;;;;0.13;83.07;100453.89;131451;1251;106410;-80
2023/12/07 00:19:38;;;;;;;65.10;28.30;;;;;;;0.12;83.00;100453.45;131338;1251;108586;-82
2023/12/07 00:22:44;;;;;;;65.00;30.50;;;;;;;0.09;82.90;100451.47;131228;1254;106856;-81
2023/12/07 00:25:50;;;;;;;56.70;27.60;;;;;;;0.07;82.96;100450.19;131285;1254;106997;-81
2023/12/07 00:28:55;;;;;;;57.00;26.60;;;;;;;0.05;83.10;100451.34;131309;1254;108682;-81
2023/12/07 00:32:01;;;;;;;55.50;25.00;;;;;;;0.03;83.07;100447.08;131272;1254;107020;-81
2023/12/07 00:35:08;;;;;;;54.50;26.30;;;;;;;0.00;83.13;100447.38;131260;1251;105409;-81
2023/12/07 00:38:14;;;;;;;55.30;25.00;;;;;;;-0.03;83.16;100443.84;131249;1257;107705;-81
2023/12/07 00:41:19;;;;;;;62.00;26.20;;;;;;;-0.05;83.26;100444.00;131276;1254;107093;-78
2023/12/07 00:44:25;;;;;;;54.90;24.60;;;;;;;-0.09;83.24;100442.44;131067;1264;106527;-80
2023/12/07 00:47:31;;;;;;;59.40;25.30;;;;;;;-0.10;83.32;100445.67;131184;1255;107610;-81
2023/12/07 00:50:36;;;;;;;49.70;22.40;;;;;;;-0.06;83.50;100448.39;131317;1254;106643;-81
2023/12/07 00:53:42;;;;;;;51.70;24.10;;;;;;;0.01;83.50;100443.48;131308;1263;106793;-80
2023/12/07 00:56:47;;;;;;;57.80;26.10;;;;;;;0.06;83.24;100448.48;131278;1251;108533;-81
2023/12/07 00:59:53;;;;;;;56.30;26.10;;;;;;;0.09;83.31;100447.98;131304;1250;107599;-81
2023/12/07 01:02:58;;;;;;;62.50;28.50;;;;;;;0.11;83.34;100449.42;131252;1251;107637;-81
2023/12/07 01:06:04;;;;;;;57.50;26.60;;;;;;;0.13;83.49;100446.69;131292;1251;108488;-80
2023/12/07 01:09:13;;;;;;;59.50;26.70;;;;;;;0.14;83.31;100450.33;131268;1257;108652;-80
2023/12/07 01:12:18;;;;;;;53.70;24.50;;;;;;;0.11;83.26;100446.48;131261;1251;107784;-81
2023/12/07 01:15:24;;;;;;;54.60;24.70;;;;;;;0.07;83.46;100446.48;131274;1253;106405;-81
2023/12/07 01:18:29;;;;;;;49.90;24.10;;;;;;;0.05;83.45;100444.71;131199;1251;107580;-81
2023/12/07 01:21:35;;;;;;;53.20;25.20;;;;;;;0.03;83.38;100447.08;131253;1256;107620;-81
2023/12/07 01:24:40;;;;;;;51.30;23.80;;;;;;;-0.01;83.55;100447.29;131258;1250;108825;-81
2023/12/07 01:27:46;;;;;;;62.70;25.90;;;;;;;-0.05;83.59;100445.90;131279;1258;108622;-81
2023/12/07 01:30:51;;;;;;;61.10;24.80;;;;;;;-0.07;83.53;100446.02;131321;1251;108348;-80
2023/12/07 01:33:57;;;;;;;55.50;23.90;;;;;;;-0.07;83.69;100447.73;131295;1251;107911;-80
2023/12/07 01:37:03;;;;;;;45.30;21.60;;;;;;;-0.00;83.78;100447.26;131269;1251;106939;-81
2023/12/07 01:40:10;;;;;;;52.20;23.50;;;;;;;0.08;83.73;100448.39;131226;1250;107359;-81
2023/12/07 01:43:16;;;;;;;54.40;25.60;;;;;;;0.14;83.60;100444.71;131286;1251;107768;-81
2023/12/07 01:46:21;;;;;;;55.00;24.80;;;;;;;0.16;83.59;100443.58;131288;1253;107741;-81
2023/12/07 01:49:27;;;;;;;55.80;24.40;;;;;;;0.18;83.55;100442.27;131319;1250;107672;-81
2023/12/07 01:52:33;;;;;;;58.20;25.60;;;;;;;0.16;83.68;100439.36;131372;1251;106628;-81
2023/12/07 01:55:39;;;;;;;54.20;25.60;;;;;;;0.14;83.66;100439.63;131335;1253;107014;-82
2023/12/07 01:58:45;;;;;;;51.90;24.00;;;;;;;0.12;83.56;100439.23;131465;1253;106995;-81
2023/12/07 02:01:51;;;;;;;53.30;24.30;;;;;;;0.08;83.68;100444.02;131319;1254;107484;-81
2023/12/07 02:04:57;;;;;;;53.30;25.60;;;;;;;0.02;83.63;100446.77;131267;1251;108523;-80
2023/12/07 02:08:03;;;;;;;55.50;24.60;;;;;;;-0.04;83.61;100448.27;131306;1251;107661;-80
2023/12/07 02:11:09;;;;;;;53.50;24.10;;;;;;;-0.06;83.82;100447.34;131217;1251;110024;-80
2023/12/07 02:14:17;;;;;;;62.10;25.20;;;;;;;-0.08;83.82;100450.25;131215;1255;106663;-81
2023/12/07 02:17:26;;;;;;;54.20;24.80;;;;;;;-0.08;83.92;100449.23;131320;1250;107652;-82
2023/12/07 02:20:38;;;;;;;52.80;24.80;;;;;;;-0.07;84.10;100452.45;131366;1250;106304;-80
2023/12/07 02:23:45;;;;;;;48.40;20.90;;;;;;;-0.01;84.13;100457.77;131269;1251;107928;-80
2023/12/07 02:26:51;;;;;;;57.70;24.30;;;;;;;0.05;84.13;100457.12;131772;1250;107401;-81
2023/12/07 02:29:56;;;;;;;51.80;22.40;;;;;;;0.11;83.97;100460.45;131353;1250;108351;-80
2023/12/07 02:33:02;;;;;;;51.90;23.40;;;;;;;0.19;84.05;100457.27;131524;1254;106762;-81
2023/12/07 02:36:09;;;;;;;56.80;24.10;;;;;;;0.21;83.91;100461.66;131294;1258;108650;-81
2023/12/07 02:39:15;;;;;;;55.60;24.90;;;;;;;0.22;84.09;100460.92;131272;1254;108845;-81
2023/12/07 02:42:23;;;;;;;52.30;24.00;;;;;;;0.24;83.94;100457.52;131307;1254;107950;-80
2023/12/07 02:45:28;;;;;;;52.00;22.70;;;;;;;0.24;84.09;100458.35;131301;1251;108491;-81
2023/12/07 02:48:34;;;;;;;49.70;23.20;;;;;;;0.23;83.97;100460.50;131191;1251;106515;-80
2023/12/07 02:51:39;;;;;;;45.60;22.20;;;;;;;0.22;84.14;100466.53;131299;1249;106524;-80
2023/12/07 02:54:45;;;;;;;49.70;23.70;;;;;;;0.20;84.10;100467.86;131227;1251;108518;-80
2023/12/07 02:57:52;;;;;;;50.30;23.10;;;;;;;0.17;84.10;100471.01;131238;1256;106074;-80
2023/12/07 03:00:57;;;;;;;61.20;25.50;;;;;;;0.14;84.13;100469.55;131223;1254;107609;-81
2023/12/07 03:04:03;;;;;;;70.30;30.90;;;;;;;0.12;84.19;100470.21;131303;1253;106200;-81
2023/12/07 03:07:08;;;;;;;67.10;29.90;;;;;;;0.13;84.25;100473.11;131426;1250;107665;-81
2023/12/07 03:10:14;;;;;;;43.20;19.70;;;;;;;0.18;84.25;100474.78;131241;1253;106417;-81
2023/12/07 03:13:19;;;;;;;81.90;37.40;;;;;;;0.25;84.27;100480.56;131249;1254;106337;-81
2023/12/07 03:16:25;;;;;;;59.50;27.00;;;;;;;0.31;84.23;100483.02;131275;1253;107552;-80
2023/12/07 03:19:30;;;;;;;52.10;23.30;;;;;;;0.35;84.12;100482.10;131296;1256;107515;-80
2023/12/07 03:22:36;;;;;;;100.20;46.30;;;;;;;0.36;84.10;100483.45;131275;1251;107468;-81
2023/12/07 03:25:41;;;;;;;64.00;32.30;;;;;;;0.35;84.28;100488.38;131324;1261;106712;-80
2023/12/07 03:28:47;;;;;;;52.80;23.00;;;;;;;0.38;84.24;100490.67;131338;1250;106676;-80
2023/12/07 03:31:53;;;;;;;50.60;24.50;;;;;;;0.39;84.36;100488.37;131429;1256;107778;-80
2023/12/07 03:34:58;;;;;;;74.20;39.90;;;;;;;0.40;84.33;100493.23;131609;1250;108502;-80
2023/12/07 03:38:04;;;;;;;72.30;36.00;;;;;;;0.41;84.28;100492.30;131085;1250;106781;-78
2023/12/07 03:41:10;;;;;;;70.70;34.30;;;;;;;0.39;84.36;100492.04;131007;1251;107421;-81
2023/12/07 03:44:15;;;;;;;52.20;23.50;;;;;;;0.36;84.38;100492.19;131448;1251;108581;-81
2023/12/07 03:47:21;;;;;;;79.50;34.90;;;;;;;0.36;84.47;100492.21;131166;1254;106332;-76
2023/12/07 03:50:26;;;;;;;46.50;20.80;;;;;;;0.36;84.41;100495.52;131232;1257;107664;-77
2023/12/07 03:53:32;;;;;;;80.00;38.30;;;;;;;0.37;84.56;100496.49;131967;1250;107695;-78
2023/12/07 03:56:37;;;;;;;108.30;55.60;;;;;;;0.42;84.54;100494.19;131040;1254;108579;-78
2023/12/07 03:59:43;;;;;;;55.60;26.00;;;;;;;0.45;84.57;100489.63;131167;1251;106418;-77
2023/12/07 04:02:48;;;;;;;50.80;24.10;;;;;;;0.47;84.57;100494.08;131154;1251;107922;-78
2023/12/07 04:05:54;;;;;;;47.80;21.40;;;;;;;0.47;84.67;100492.84;131041;1251;107456;-77
2023/12/07 04:09:00;;;;;;;43.10;20.40;;;;;;;0.47;84.52;100487.28;131059;1251;107830;-78
2023/12/07 04:12:06;;;;;;;41.70;19.90;;;;;;;0.44;84.44;100486.92;131080;1256;107223;-77
2023/12/07 04:15:12;;;;;;;49.10;21.20;;;;;;;0.40;84.61;100488.31;131065;1251;107699;-78
2023/12/07 04:18:18;;;;;;;43.70;19.10;;;;;;;0.36;84.64;100485.70;131074;1251;107561;-78
2023/12/07 04:21:23;;;;;;;50.90;21.10;;;;;;;0.35;84.78;100484.73;131042;1256;108647;-78
2023/12/07 04:24:29;;;;;;;47.20;20.50;;;;;;;0.32;84.72;100481.75;131057;1254;108734;-76
2023/12/07 04:27:35;;;;;;;44.30;18.50;;;;;;;0.33;84.83;100480.60;131036;1254;107786;-77
2023/12/07 04:30:41;;;;;;;46.10;20.90;;;;;;;0.40;84.85;100486.21;131032;1254;105621;-77
2023/12/07 04:33:46;;;;;;;44.20;19.20;;;;;;;0.45;84.90;100484.39;131074;1255;109522;-77
2023/12/07 04:36:52;;;;;;;45.30;20.70;;;;;;;0.49;84.71;100479.09;131070;1251;108477;-77
2023/12/07 04:39:58;;;;;;;45.10;19.80;;;;;;;0.52;84.82;100481.05;131052;1251;107056;-78
2023/12/07 04:43:04;;;;;;;43.70;20.80;;;;;;;0.53;84.84;100481.15;131076;1251;107592;-78
2023/12/07 04:46:09;;;;;;;44.90;20.10;;;;;;;0.52;84.81;100483.98;130980;1253;107788;-77
2023/12/07 04:49:15;;;;;;;42.00;19.50;;;;;;;0.53;84.94;100486.20;131072;1251;108459;-79
2023/12/07 04:52:20;;;;;;;43.40;19.80;;;;;;;0.52;84.94;100488.02;131037;1254;108733;-77
2023/12/07 04:55:26;;;;;;;44.90;20.70;;;;;;;0.49;84.89;100489.39;131048;1251;106757;-77
2023/12/07 04:58:32;;;;;;;43.70;19.00;;;;;;;0.47;84.97;100491.30;131078;1254;107551;-78
2023/12/07 05:01:37;;;;;;;49.00;20.40;;;;;;;0.47;84.93;100490.95;131048;1257;107770;-77
2023/12/07 05:04:43;;;;;;;46.60;19.50;;;;;;;0.47;85.06;100495.49;131030;1251;108684;-77
2023/12/07 05:07:48;;;;;;;42.00;17.60;;;;;;;0.49;85.03;100497.65;131055;1254;106906;-77
2023/12/07 05:10:55;;;;;;;44.10;20.20;;;;;;;0.54;85.19;100499.62;131108;1250;107099;-77
2023/12/07 05:14:00;;;;;;;43.40;19.50;;;;;;;0.63;85.03;100501.27;131147;1251;108523;-75
2023/12/07 05:17:06;;;;;;;39.90;19.10;;;;;;;0.69;85.12;100500.94;131087;1252;106818;-77
2023/12/07 05:20:13;;;;;;;47.40;21.90;;;;;;;0.72;84.88;100498.81;131071;1251;106795;-78
2023/12/07 05:23:18;;;;;;;51.40;22.60;;;;;;;0.71;85.00;100500.29;131038;1256;106075;-77
2023/12/07 05:26:24;;;;;;;57.10;23.30;;;;;;;0.70;84.81;100499.98;131003;1256;108647;-78
2023/12/07 05:29:29;;;;;;;54.10;23.90;;;;;;;0.66;84.86;100500.91;131082;1254;108544;-78
2023/12/07 05:32:35;;;;;;;55.40;24.50;;;;;;;0.61;84.89;100507.67;131137;1254;108720;-77
2023/12/07 05:35:40;;;;;;;57.30;26.20;;;;;;;0.55;84.94;100509.58;131170;1251;107920;-77
2023/12/07 05:38:46;;;;;;;56.90;25.90;;;;;;;0.52;85.00;100513.77;131172;1256;108641;-76
2023/12/07 05:41:51;;;;;;;53.90;24.50;;;;;;;0.49;85.03;100517.39;131197;1256;107562;-77
2023/12/07 05:44:58;;;;;;;58.40;25.20;;;;;;;0.45;85.13;100517.77;131108;1251;108390;-76
2023/12/07 05:48:03;;;;;;;58.50;24.90;;;;;;;0.41;85.17;100521.89;131132;1251;106584;-78
2023/12/07 05:51:14;;;;;;;55.60;24.30;;;;;;;0.32;85.25;100526.68;131069;1255;108722;-75
2023/12/07 05:54:20;;;;;;;51.20;22.70;;;;;;;0.31;85.31;100528.87;131162;1256;107802;-77
2023/12/07 05:57:26;;;;;;;63.90;27.50;;;;;;;0.30;85.20;100528.92;131064;1255;106925;-77
2023/12/07 06:00:32;;;;;;;59.60;27.70;;;;;;;0.31;85.34;100536.02;131002;1254;108728;-78
2023/12/07 06:03:37;;;;;;;58.40;26.30;;;;;;;0.34;85.48;100541.14;131067;1251;107654;-78
2023/12/07 06:06:43;;;;;;;58.90;26.40;;;;;;;0.33;85.49;100542.39;131022;1251;106577;-79
2023/12/07 06:09:48;;;;;;;52.60;23.70;;;;;;;0.33;85.41;100546.24;131182;1256;108648;-77
2023/12/07 06:12:55;;;;;;;51.60;23.70;;;;;;;0.32;85.36;100547.37;131114;1255;106601;-76
2023/12/07 06:16:01;;;;;;;53.30;23.50;;;;;;;0.29;85.37;100548.19;131036;1254;107677;-77
2023/12/07 06:19:06;;;;;;;67.80;30.50;;;;;;;0.23;85.53;100553.92;131115;1254;106845;-77
2023/12/07 06:22:13;;;;;;;59.30;26.90;;;;;;;0.20;85.59;100558.81;131059;1250;108645;-78
2023/12/07 06:25:19;;;;;;;65.60;26.40;;;;;;;0.18;85.57;100560.48;131031;1250;106909;-76
2023/12/07 06:28:24;;;;;;;66.80;27.00;;;;;;;0.17;85.54;100563.17;131128;1254;106894;-78
2023/12/07 06:31:30;;;;;;;64.80;25.60;;;;;;;0.16;85.59;100565.52;131043;1251;107726;-78
2023/12/07 06:34:40;;;;;;;61.20;25.50;;;;;;;0.20;85.74;100569.86;131197;1250;108660;-78
2023/12/07 06:37:45;;;;;;;67.10;28.20;;;;;;;0.26;85.68;100569.02;131059;1254;107901;-77
2023/12/07 06:40:51;;;;;;;65.60;28.00;;;;;;;0.31;85.86;100569.27;131135;1253;106902;-75
2023/12/07 06:43:57;;;;;;;68.00;27.00;;;;;;;0.41;85.83;100569.62;130995;1251;108367;-77
2023/12/07 06:47:04;;;;;;;60.10;25.80;;;;;;;0.45;85.58;100559.66;131059;1256;106903;-76
2023/12/07 06:50:11;;;;;;;57.60;25.70;;;;;;;0.49;85.56;100564.71;131177;1254;107537;-77
2023/12/07 06:53:18;;;;;;;58.80;25.80;;;;;;;0.47;85.62;100564.98;130986;1253;108765;-77
2023/12/07 06:56:23;;;;;;;58.80;24.50;;;;;;;0.43;85.46;100565.35;131043;1254;107048;-78
2023/12/07 06:59:29;;;;;;;62.80;25.40;;;;;;;0.46;85.81;100565.73;131071;1251;108769;-77
2023/12/07 07:02:35;;;;;;;53.60;23.00;;;;;;;0.51;85.82;100565.63;131098;1254;107269;-78
2023/12/07 07:05:40;;;;;;;60.40;22.80;;;;;;;0.55;85.74;100569.63;131057;1250;106821;-77
2023/12/07 07:08:46;;;;;;;53.50;23.30;;;;;;;0.57;85.70;100569.17;131116;1252;107661;-76
2023/12/07 07:11:52;;;;;;;72.60;30.30;;;;;;;0.60;85.84;100569.67;131215;1255;107687;-78
2023/12/07 07:14:58;;;;;;;66.90;29.40;;;;;;;0.65;85.96;100570.63;131104;1251;108058;-77
2023/12/07 07:18:03;;;;;;;73.30;31.90;;;;;;;0.77;86.03;100573.66;131106;1255;106449;-76
2023/12/07 07:21:09;;;;;;;66.10;29.20;;;;;;;0.90;85.77;100571.05;130994;1251;107585;-76
2023/12/07 07:24:15;;;;;;;63.00;27.70;;;;;;;1.00;85.75;100570.36;131027;1249;108108;-77
2023/12/07 07:27:21;;;;;;;61.60;27.80;;;;;;;1.07;85.63;100567.69;131065;1249;106533;-77
2023/12/07 07:30:27;;;;;;;65.20;28.00;;;;;;;1.10;85.63;100568.40;131000;1253;107645;-77
2023/12/07 07:33:33;;;;;;;56.40;25.50;;;;;;;1.10;85.60;100567.70;131062;1254;107774;-77
2023/12/07 07:36:38;;;;;;;53.10;24.70;;;;;;;1.13;85.64;100563.81;131124;1254;108656;-78
2023/12/07 07:39:44;;;;;;;50.90;23.00;;;;;;;1.19;85.65;100568.08;131004;1252;106426;-77
2023/12/07 07:42:49;;;;;;;51.70;24.80;;;;;;;1.23;85.62;100571.02;131104;1251;106827;-78
2023/12/07 07:45:55;;;;;;;51.50;25.10;;;;;;;1.21;85.36;100568.33;131059;1257;108684;-78
2023/12/07 07:49:03;;;;;;;54.10;25.10;;;;;;;1.16;85.41;100569.97;131016;1250;107729;-78
2023/12/07 07:52:09;;;;;;;58.70;26.10;;;;;;;1.16;85.56;100574.50;130990;1254;107048;-80
2023/12/07 07:55:14;;;;;;;58.90;25.10;;;;;;;1.17;85.56;100574.67;131052;1250;108615;-77
2023/12/07 07:58:20;;;;;;;51.30;21.90;;;;;;;1.19;85.41;100575.25;131083;1254;107501;-77
2023/12/07 08:01:25;;;;;;;57.30;26.90;;;;;;;1.25;85.62;100576.52;131004;1251;108726;-76
2023/12/07 08:04:31;;;;;;;54.70;26.10;;;;;;;1.31;85.45;100578.95;131064;1250;106755;-78
2023/12/07 08:07:36;;;;;;;53.10;25.50;;;;;;;1.32;85.33;100582.05;130990;1255;106280;-77
2023/12/07 08:10:42;;;;;;;58.60;27.50;;;;;;;1.27;85.25;100586.22;131039;1253;107613;-78
2023/12/07 08:13:47;;;;;;;61.20;27.50;;;;;;;1.20;85.41;100585.86;131038;1252;106495;-78
2023/12/07 08:16:53;;;;;;;52.60;25.00;;;;;;;1.16;85.64;100590.27;131059;1255;107707;-77
2023/12/07 08:19:59;;;;;;;56.90;25.90;;;;;;;1.18;85.59;100590.55;131048;1251;107710;-78
2023/12/07 08:23:04;;;;;;;57.50;26.20;;;;;;;1.21;85.68;100590.59;131034;1251;107653;-78
2023/12/07 08:26:11;;;;;;;59.40;24.90;;;;;;;1.24;85.59;100590.09;131006;1255;106820;-77
2023/12/07 08:29:16;;;;;;;54.60;24.30;;;;;;;1.25;85.62;100587.91;131037;1255;106185;-78
2023/12/07 08:32:22;;;;;;;46.40;21.20;;;;;;;1.26;85.55;100583.65;131013;1256;106681;-78
2023/12/07 08:35:27;;;;;;;59.50;27.10;;;;;;;1.34;85.80;100587.04;131011;1250;107735;-79
2023/12/07 08:38:34;;;;;;;55.00;28.30;;;;;;;1.47;85.82;100583.53;131088;1250;108502;-77
2023/12/07 08:41:39;;;;;;;65.10;29.70;;;;;;;1.62;85.81;100583.21;131057;1251;108561;-76
2023/12/07 08:44:46;;;;;;;54.40;27.80;;;;;;;1.72;85.45;100582.44;131007;1251;107704;-78
2023/12/07 08:47:51;;;;;;;55.90;25.80;;;;;;;1.78;85.28;100581.75;131059;1251;108644;-77
2023/12/07 08:50:57;;;;;;;55.70;27.60;;;;;;;1.82;85.26;100579.07;131026;1251;108467;-77
2023/12/07 08:54:02;;;;;;;58.80;28.10;;;;;;;1.88;85.23;100580.81;131047;1251;107681;-76
2023/12/07 08:57:08;;;;;;;57.60;29.00;;;;;;;1.94;85.07;100585.05;131048;1256;106467;-82
2023/12/07 09:00:15;;;;;;;57.50;29.90;;;;;;;1.97;85.13;100585.74;131052;1250;108600;-79
2023/12/07 09:03:20;;;;;;;53.30;27.40;;;;;;;2.00;84.99;100589.64;130983;1250;108264;-76
2023/12/07 09:06:26;;;;;;;59.20;28.20;;;;;;;1.99;84.95;100593.67;131020;1251;106459;-76
2023/12/07 09:09:32;;;;;;;52.80;25.10;;;;;;;2.01;85.23;100597.41;131010;1256;106873;-76
2023/12/07 09:12:38;;;;;;;45.90;21.60;;;;;;;2.09;84.96;100599.41;131128;1251;108824;-78
2023/12/07 09:15:43;;;;;;;51.70;25.00;;;;;;;2.15;84.97;100599.23;130997;1253;106805;-77
2023/12/07 09:18:49;;;;;;;56.70;29.00;;;;;;;2.23;85.07;100600.50;131046;1253;107046;-77
2023/12/07 09:21:55;;;;;;;50.70;25.10;;;;;;;2.27;85.04;100603.61;131028;1251;108208;-78
2023/12/07 09:25:00;;;;;;;50.70;26.40;;;;;;;2.30;84.82;100602.71;131189;1255;106818;-79
2023/12/07 09:28:06;;;;;;;59.60;31.20;;;;;;;2.30;84.59;100602.20;131082;1256;108748;-78
2023/12/07 09:31:11;;;;;;;53.20;25.40;;;;;;;2.30;84.77;100603.77;131112;1250;108689;-77
2023/12/07 09:34:18;;;;;;;50.70;25.40;;;;;;;2.29;84.60;100598.91;131067;1251;107089;-79
2023/12/07 09:37:23;;;;;;;43.00;23.10;;;;;;;2.28;84.78;100599.70;131007;1253;107240;-79
2023/12/07 09:40:29;;;;;;;53.10;25.70;;;;;;;2.28;84.82;100601.26;131011;1254;108767;-77
2023/12/07 09:43:34;;;;;;;52.70;24.80;;;;;;;2.27;84.66;100602.39;131152;1250;107919;-78
2023/12/07 09:46:40;;;;;;;48.10;24.80;;;;;;;2.25;84.64;100603.39;131158;1256;108780;-77
2023/12/07 09:49:52;;;;;;;57.00;29.20;;;;;;;2.22;84.72;100603.73;131062;1253;107605;-78
2023/12/07 09:52:59;;;;;;;52.40;25.50;;;;;;;2.19;84.51;100609.02;130886;1253;109499;-78
2023/12/07 09:56:06;;;;;;;46.60;22.10;;;;;;;2.14;84.49;100607.21;130985;1256;107686;-78
2023/12/07 09:59:12;;;;;;;51.60;24.60;;;;;;;2.13;84.63;100609.34;131059;1255;106346;-79
2023/12/07 10:02:17;;;;;;;51.00;25.90;;;;;;;2.13;84.72;100607.80;131001;1251;108679;-80
2023/12/07 10:05:23;;;;;;;59.90;30.10;;;;;;;2.13;84.67;100610.92;131134;1249;107590;-77
2023/12/07 10:08:35;;;;;;;53.50;25.40;;;;;;;2.14;84.50;100609.13;130988;1255;106551;-77
2023/12/07 10:11:41;;;;;;;55.30;28.20;;;;;;;2.14;84.63;100606.65;131120;1256;107831;-77
2023/12/07 10:14:47;;;;;;;79.70;41.60;;;;;;;2.17;84.65;100604.55;131165;1256;107852;-77
2023/12/07 10:17:54;;;;;;;58.90;31.40;;;;;;;2.20;84.78;100605.63;131133;1256;107346;-78
2023/12/07 10:20:59;;;;;;;51.50;26.00;;;;;;;2.20;84.65;100601.27;131164;1251;107718;-77
2023/12/07 10:24:05;;;;;;;57.40;28.70;;;;;;;2.21;84.66;100599.92;131019;1256;106625;-77
2023/12/07 10:27:11;;;;;;;48.40;26.10;;;;;;;2.21;84.53;100599.59;131046;1261;108229;-77
2023/12/07 10:30:21;;;;;;;49.60;25.40;;;;;;;2.21;84.74;100593.96;130994;1251;107790;-77
2023/12/07 10:33:28;;;;;;;84.30;41.90;;;;;;;2.24;84.62;100591.00;131137;1253;107209;-78
2023/12/07 10:36:34;;;;;;;51.30;26.00;;;;;;;2.26;84.59;100588.08;131034;1250;106733;-77
2023/12/07 10:39:39;;;;;;;55.30;28.70;;;;;;;2.31;84.76;100592.63;131055;1253;106819;-77
2023/12/07 10:42:49;;;;;;;46.30;25.10;;;;;;;2.33;84.34;100592.20;131093;1256;106701;-77
2023/12/07 10:45:55;;;;;;;52.50;25.90;;;;;;;2.34;84.57;100592.44;131163;1257;107492;-78
2023/12/07 10:49:04;;;;;;;47.40;24.90;;;;;;;2.38;84.42;100589.46;131087;1254;106009;-77
2023/12/07 10:52:15;;;;;;;48.80;25.50;;;;;;;2.41;84.63;100587.84;131177;1256;107521;-77
2023/12/07 10:55:28;;;;;;;46.00;23.80;;;;;;;2.48;84.46;100584.13;131195;1256;106875;-77
2023/12/07 10:58:38;;;;;;;44.90;25.10;;;;;;;2.50;84.22;100581.01;131186;1256;106363;-78
2023/12/07 11:01:46;;;;;;;45.80;25.90;;;;;;;2.43;84.11;100580.70;131114;1256;105950;-77
2023/12/07 11:04:53;;;;;;;46.70;24.90;;;;;;;2.45;84.38;100578.52;131064;1254;106445;-78
2023/12/07 11:08:06;;;;;;;48.00;25.00;;;;;;;2.49;84.28;100574.55;131213;1254;106644;-76
2023/12/07 11:11:20;;;;;;;47.60;25.30;;;;;;;2.50;84.13;100578.04;130991;1256;107837;-78
2023/12/07 11:14:26;;;;;;;46.10;23.80;;;;;;;2.50;84.22;100575.02;131010;1253;108450;-77
2023/12/07 11:17:48;;;;;;;41.80;22.20;;;;;;;2.54;84.38;100577.57;131049;1255;107580;-78
2023/12/07 11:20:56;;;;;;;50.70;25.10;;;;;;;2.62;84.23;100576.76;131185;1254;108526;-78
2023/12/07 11:24:04;;;;;;;48.30;25.30;;;;;;;2.65;84.15;100579.38;131161;1251;106530;-78
2023/12/07 11:27:09;;;;;;;48.20;26.50;;;;;;;2.70;84.06;100584.16;131089;1256;106645;-78
2023/12/07 11:30:17;;;;;;;50.20;27.50;;;;;;;2.76;84.00;100583.30;131120;1250;109061;-78
2023/12/07 11:33:22;;;;;;;50.40;28.00;;;;;;;2.78;83.89;100583.52;131194;1254;106728;-78
2023/12/07 11:36:28;;;;;;;53.10;29.00;;;;;;;2.78;83.76;100580.39;131092;1256;106705;-78
2023/12/07 11:39:37;;;;;;;52.10;26.40;;;;;;;2.80;84.12;100582.48;131025;1253;106571;-77
2023/12/07 11:42:45;;;;;;;49.90;26.70;;;;;;;2.87;83.92;100577.87;131147;1256;105528;-79
2023/12/07 11:45:53;;;;;;;46.70;26.50;;;;;;;2.89;83.85;100578.96;131490;1256;107701;-79
2023/12/07 11:49:00;;;;;;;47.30;27.00;;;;;;;2.91;83.80;100581.15;131072;1256;106893;-79
2023/12/07 11:52:16;;;;;;;50.60;28.00;;;;;;;2.91;83.70;100580.05;131110;1253;107784;-78
2023/12/07 11:55:22;;;;;;;43.60;25.20;;;;;;;2.85;83.77;100580.63;131190;1256;107241;-78
2023/12/07 11:58:30;;;;;;;45.00;24.60;;;;;;;2.82;83.86;100580.96;131154;1253;109217;-79
2023/12/07 12:01:35;;;;;;;44.40;25.60;;;;;;;2.85;83.73;100582.58;130881;1255;145995;-78
2023/12/07 12:04:42;;;;;;;44.40;22.90;;;;;;;2.82;83.70;100580.80;131004;1256;107696;-79
2023/12/07 12:07:48;;;;;;;46.70;25.90;;;;;;;2.85;83.75;100579.02;131018;1251;107542;-78
2023/12/07 12:10:57;;;;;;;45.70;27.30;;;;;;;2.90;83.63;100578.39;131035;1253;107766;-78
2023/12/07 12:14:03;;;;;;;47.50;26.50;;;;;;;2.94;83.71;100581.27;131034;1256;107538;-78
2023/12/07 12:17:08;;;;;;;44.30;24.20;;;;;;;2.99;83.61;100578.88;131157;1250;107647;-78
2023/12/07 12:20:17;;;;;;;47.50;23.40;;;;;;;3.02;83.54;100572.48;131008;1256;106946;-76
2023/12/07 12:23:22;;;;;;;41.70;24.20;;;;;;;3.03;83.43;100565.05;131153;1256;108517;-75
2023/12/07 12:26:28;;;;;;;40.60;23.20;;;;;;;3.06;83.48;100566.49;131075;1253;106589;-77
2023/12/07 12:29:34;;;;;;;43.20;24.60;;;;;;;3.06;83.37;100562.05;131176;1255;107581;-77
2023/12/07 12:32:46;;;;;;;44.40;25.30;;;;;;;3.06;83.57;100562.58;131094;1254;107091;-78
2023/12/07 12:36:06;;;;;;;54.90;29.50;;;;;;;3.07;83.21;100560.09;131144;1253;107934;-77
2023/12/07 12:39:12;;;;;;;50.50;28.20;;;;;;;3.04;83.25;100556.59;131233;1252;107711;-78
2023/12/07 12:42:18;;;;;;;56.20;31.50;;;;;;;2.98;83.18;100553.29;131016;1256;106639;-78
2023/12/07 12:45:24;;;;;;;61.10;34.60;;;;;;;2.93;83.23;100564.84;130939;1256;108319;-77
2023/12/07 12:48:29;;;;;;;47.60;26.20;;;;;;;2.90;83.31;100569.04;131043;1255;107628;-77
2023/12/07 12:51:38;;;;;;;55.10;27.70;;;;;;;2.89;83.13;100566.14;131063;1255;107716;-78
2023/12/07 12:54:48;;;;;;;65.50;32.70;;;;;;;2.90;83.16;100562.52;131066;1253;107218;-76
2023/12/07 12:57:57;;;;;;;53.00;28.90;;;;;;;2.95;83.30;100566.27;131091;1256;106688;-81
2023/12/07 13:01:03;;;;;;;58.30;30.60;;;;;;;2.99;83.27;100569.53;131137;1257;108233;-78
2023/12/07 13:04:09;;;;;;;55.00;30.30;;;;;;;2.98;83.18;100571.55;131177;1256;107971;-79
2023/12/07 13:07:15;;;;;;;53.70;28.70;;;;;;;2.91;82.92;100577.08;131194;1250;107816;-79
2023/12/07 13:10:20;;;;;;;59.50;32.70;;;;;;;2.85;83.06;100580.96;131062;1256;106215;-78
2023/12/07 13:13:29;;;;;;;61.00;35.70;;;;;;;2.80;83.15;100579.73;131059;1251;107394;-79
2023/12/07 13:16:35;;;;;;;54.80;31.30;;;;;;;2.76;83.24;100586.09;131045;1256;108523;-78
2023/12/07 13:19:40;;;;;;;51.50;29.90;;;;;;;2.73;83.17;100584.65;131010;1256;107704;-80
2023/12/07 13:22:46;;;;;;;51.60;29.50;;;;;;;2.69;83.28;100587.73;131059;1256;107507;-79
2023/12/07 13:25:52;;;;;;;56.60;31.40;;;;;;;2.62;83.20;100589.58;131121;1253;107277;-79
2023/12/07 13:28:57;;;;;;;54.40;28.60;;;;;;;2.55;83.22;100590.16;131105;1255;108601;-77
2023/12/07 13:32:03;;;;;;;56.40;31.70;;;;;;;2.49;83.38;100590.86;131033;1255;107778;-79
2023/12/07 13:35:09;;;;;;;51.80;28.30;;;;;;;2.46;83.28;100588.80;131294;1254;107601;-83
2023/12/07 13:38:15;;;;;;;55.00;28.90;;;;;;;2.46;83.47;100593.89;131266;1255;106503;-83
2023/12/07 13:41:21;;;;;;;50.10;28.00;;;;;;;2.49;83.31;100593.36;131311;1250;107708;-83
2023/12/07 13:44:27;;;;;;;54.00;29.00;;;;;;;2.51;83.15;100593.58;131423;1250;106607;-83
2023/12/07 13:47:32;;;;;;;50.20;28.90;;;;;;;2.50;83.28;100596.11;131357;1250;107529;-83
2023/12/07 13:50:38;;;;;;;52.20;29.30;;;;;;;2.46;83.30;100598.46;131224;1250;107797;-84
2023/12/07 13:53:44;;;;;;;52.90;28.40;;;;;;;2.42;83.20;100597.10;131274;1256;108705;-84
2023/12/07 13:56:49;;;;;;;54.40;28.60;;;;;;;2.37;83.29;100597.91;131262;1251;108728;-83